KDRO/DRO METAR and TAF weather

Enter ICAO airport designator
Station Type Date Time Source
KDRO METAR 2020/09/22 23:53 UTC NOAA

KDRO 222353Z AUTO 27014KT 10SM CLR 25/01 A3022 RMK AO2 SLP162 60000 T02500006 10261 20206 55009


Station Type Date Time Source
KDRO Decoded METAR 2020/09/22 23:53 UTC NOAA

DURANGO-LA PLATA COUNTY AIRPORT , CO, United States (KDRO) 37-09N 107-46W 2035M
Sep 22, 2020 - 07:53 PM EDT / 2020.09.22 2353 UTC
Wind: from the W (270 degrees) at 16 MPH (14 KT):0
Visibility: 10 mile(s):0
Sky conditions: clear
Temperature: 77.0 F (25.0 C)
Dew Point: 33.1 F (0.6 C)
Relative Humidity: 20%
Pressure (altimeter): 30.22 in. Hg (1023 hPa)
Pressure tendency: 0.03 inches (0.9 hPa) lower than three hours ago
ob: KDRO 222353Z AUTO 27014KT 10SM CLR 25/01 A3022 RMK AO2 SLP162 60000 T02500006 10261 20206 55009
cycle: 0

Station Type Date Time Source
KDRO TAF 2020/09/22 18:33 UTC NOAA

TAF KDRO 221730Z 2218/2318 22005KT P6SM FEW050 SCT100
FM222000 27010G18KT P6SM FEW100 SCT250
FM230000 30012KT P6SM FEW100 SCT250
FM231200 01005KT P6SM FEW090 FEW250

Example: see airport list